sensor_id;sensor_type;location;lat;lon;timestamp;pressure;altitude;pressure_sealevel;temperature;humidity
39613;BME280;25303;48.896;13.342;2023-08-12T00:01:23;93472.72;;;19.17;55.48
39613;BME280;25303;48.896;13.342;2023-08-12T00:04:08;93470.34;;;19.22;55.51
39613;BME280;25303;48.896;13.342;2023-08-12T00:06:53;93472.13;;;19.21;55.48
39613;BME280;25303;48.896;13.342;2023-08-12T00:09:36;93471.34;;;19.21;55.35
39613;BME280;25303;48.896;13.342;2023-08-12T00:12:19;93473.75;;;19.22;55.47
39613;BME280;25303;48.896;13.342;2023-08-12T00:15:03;93468.94;;;19.19;55.52
39613;BME280;25303;48.896;13.342;2023-08-12T00:17:47;93461.28;;;19.18;55.78
39613;BME280;25303;48.896;13.342;2023-08-12T00:20:32;93457.47;;;19.20;55.49
39613;BME280;25303;48.896;13.342;2023-08-12T00:23:15;93459.91;;;19.22;55.62
39613;BME280;25303;48.896;13.342;2023-08-12T00:25:58;93451.69;;;19.25;55.38
39613;BME280;25303;48.896;13.342;2023-08-12T00:28:41;93446.47;;;19.25;55.33
39613;BME280;25303;48.896;13.342;2023-08-12T00:31:24;93446.66;;;19.23;55.75
39613;BME280;25303;48.896;13.342;2023-08-12T00:34:07;93450.25;;;19.22;55.86
39613;BME280;25303;48.896;13.342;2023-08-12T00:36:51;93453.31;;;19.26;55.25
39613;BME280;25303;48.896;13.342;2023-08-12T00:39:36;93444.03;;;19.23;55.68
39613;BME280;25303;48.896;13.342;2023-08-12T00:42:20;93442.66;;;19.27;55.63
39613;BME280;25303;48.896;13.342;2023-08-12T00:45:08;93446.28;;;19.26;55.40
39613;BME280;25303;48.896;13.342;2023-08-12T00:47:52;93439.66;;;19.24;55.46
39613;BME280;25303;48.896;13.342;2023-08-12T00:50:36;93428.97;;;19.19;55.56
39613;BME280;25303;48.896;13.342;2023-08-12T00:53:21;93438.66;;;19.25;55.43
39613;BME280;25303;48.896;13.342;2023-08-12T00:56:04;93433.00;;;19.28;55.43
39613;BME280;25303;48.896;13.342;2023-08-12T00:58:48;93426.78;;;19.29;55.63
39613;BME280;25303;48.896;13.342;2023-08-12T01:01:31;93430.03;;;19.31;55.08
39613;BME280;25303;48.896;13.342;2023-08-12T01:04:14;93433.25;;;19.33;55.22
39613;BME280;25303;48.896;13.342;2023-08-12T01:06:57;93437.66;;;19.33;55.47
39613;BME280;25303;48.896;13.342;2023-08-12T01:09:43;93433.06;;;19.35;54.94
39613;BME280;25303;48.896;13.342;2023-08-12T01:12:29;93435.25;;;19.38;55.06
39613;BME280;25303;48.896;13.342;2023-08-12T01:15:18;93435.25;;;19.38;55.40
39613;BME280;25303;48.896;13.342;2023-08-12T01:18:05;93427.84;;;19.35;55.34
39613;BME280;25303;48.896;13.342;2023-08-12T01:20:49;93421.16;;;19.25;55.32
39613;BME280;25303;48.896;13.342;2023-08-12T01:23:35;93420.34;;;19.18;56.00
39613;BME280;25303;48.896;13.342;2023-08-12T01:26:18;93424.38;;;19.27;55.14
39613;BME280;25303;48.896;13.342;2023-08-12T01:29:01;93419.78;;;19.30;55.23
39613;BME280;25303;48.896;13.342;2023-08-12T01:31:48;93416.56;;;19.34;55.02
39613;BME280;25303;48.896;13.342;2023-08-12T01:34:40;93413.97;;;19.34;54.63
39613;BME280;25303;48.896;13.342;2023-08-12T01:37:28;93406.31;;;19.26;54.80
39613;BME280;25303;48.896;13.342;2023-08-12T01:40:14;93408.41;;;18.95;56.11
39613;BME280;25303;48.896;13.342;2023-08-12T01:42:58;93401.63;;;19.08;55.32
39613;BME280;25303;48.896;13.342;2023-08-12T01:45:41;93395.22;;;19.10;55.35
39613;BME280;25303;48.896;13.342;2023-08-12T01:48:25;93401.81;;;19.00;55.95
39613;BME280;25303;48.896;13.342;2023-08-12T01:51:08;93400.91;;;18.86;55.93
39613;BME280;25303;48.896;13.342;2023-08-12T01:53:51;93389.44;;;18.80;56.36
39613;BME280;25303;48.896;13.342;2023-08-12T01:56:35;93391.03;;;18.74;56.56
39613;BME280;25303;48.896;13.342;2023-08-12T01:59:18;93388.88;;;18.85;55.99
39613;BME280;25303;48.896;13.342;2023-08-12T02:02:01;93391.72;;;18.90;55.75
39613;BME280;25303;48.896;13.342;2023-08-12T02:04:44;93393.50;;;18.89;56.38
39613;BME280;25303;48.896;13.342;2023-08-12T02:07:27;93382.50;;;18.94;56.28
39613;BME280;25303;48.896;13.342;2023-08-12T02:10:10;93385.66;;;18.82;56.28
39613;BME280;25303;48.896;13.342;2023-08-12T02:12:54;93393.28;;;18.84;56.03
39613;BME280;25303;48.896;13.342;2023-08-12T02:15:37;93389.06;;;18.83;56.22
39613;BME280;25303;48.896;13.342;2023-08-12T02:18:25;93384.66;;;18.90;55.98
39613;BME280;25303;48.896;13.342;2023-08-12T02:21:08;93379.72;;;18.95;55.91
39613;BME280;25303;48.896;13.342;2023-08-12T02:23:51;93372.91;;;19.01;55.74
39613;BME280;25303;48.896;13.342;2023-08-12T02:26:34;93373.75;;;19.08;55.58
39613;BME280;25303;48.896;13.342;2023-08-12T02:29:18;93367.94;;;19.13;55.05
39613;BME280;25303;48.896;13.342;2023-08-12T02:32:01;93367.53;;;19.16;54.91
39613;BME280;25303;48.896;13.342;2023-08-12T02:34:44;93370.56;;;19.20;54.60
39613;BME280;25303;48.896;13.342;2023-08-12T02:37:27;93367.69;;;19.01;54.83
39613;BME280;25303;48.896;13.342;2023-08-12T02:40:11;93372.16;;;19.14;54.36
39613;BME280;25303;48.896;13.342;2023-08-12T02:42:54;93366.72;;;19.16;54.27
39613;BME280;25303;48.896;13.342;2023-08-12T02:45:38;93365.13;;;19.21;54.24
39613;BME280;25303;48.896;13.342;2023-08-12T02:48:21;93361.94;;;19.26;54.24
39613;BME280;25303;48.896;13.342;2023-08-12T02:51:04;93362.16;;;19.31;53.90
39613;BME280;25303;48.896;13.342;2023-08-12T02:53:47;93352.13;;;19.35;53.74
39613;BME280;25303;48.896;13.342;2023-08-12T02:56:30;93354.53;;;19.36;53.47
39613;BME280;25303;48.896;13.342;2023-08-12T02:59:13;93348.31;;;19.37;53.10
39613;BME280;25303;48.896;13.342;2023-08-12T03:01:57;93344.50;;;19.40;53.23
39613;BME280;25303;48.896;13.342;2023-08-12T03:04:40;93349.09;;;19.44;52.39
39613;BME280;25303;48.896;13.342;2023-08-12T03:07:23;93348.53;;;19.42;53.10
39613;BME280;25303;48.896;13.342;2023-08-12T03:10:07;93344.72;;;19.45;52.77
39613;BME280;25303;48.896;13.342;2023-08-12T03:12:50;93345.69;;;19.37;52.12
39613;BME280;25303;48.896;13.342;2023-08-12T03:15:38;93346.50;;;19.38;52.26
39613;BME280;25303;48.896;13.342;2023-08-12T03:18:23;93346.31;;;19.33;52.72
39613;BME280;25303;48.896;13.342;2023-08-12T03:21:07;93351.31;;;19.34;52.65
39613;BME280;25303;48.896;13.342;2023-08-12T03:23:51;93345.09;;;19.35;51.94
39613;BME280;25303;48.896;13.342;2023-08-12T03:26:34;93339.88;;;19.35;52.28
39613;BME280;25303;48.896;13.342;2023-08-12T03:29:17;93344.88;;;19.30;52.51
39613;BME280;25303;48.896;13.342;2023-08-12T03:32:02;93340.88;;;19.27;52.31
39613;BME280;25303;48.896;13.342;2023-08-12T03:34:47;93336.66;;;19.33;52.46
39613;BME280;25303;48.896;13.342;2023-08-12T03:37:31;93333.25;;;19.33;52.36
39613;BME280;25303;48.896;13.342;2023-08-12T03:40:15;93328.41;;;19.23;52.75
39613;BME280;25303;48.896;13.342;2023-08-12T03:42:58;93341.25;;;19.18;52.39
39613;BME280;25303;48.896;13.342;2023-08-12T03:45:42;93336.00;;;19.11;52.56
39613;BME280;25303;48.896;13.342;2023-08-12T03:48:27;93331.19;;;19.15;52.85
39613;BME280;25303;48.896;13.342;2023-08-12T03:51:13;93334.00;;;19.13;52.68
39613;BME280;25303;48.896;13.342;2023-08-12T03:53:56;93332.00;;;19.08;52.98
39613;BME280;25303;48.896;13.342;2023-08-12T03:56:38;93338.22;;;19.14;52.61
39613;BME280;25303;48.896;13.342;2023-08-12T03:59:21;93332.19;;;19.07;52.75
39613;BME280;25303;48.896;13.342;2023-08-12T04:02:04;93332.00;;;19.08;52.43
39613;BME280;25303;48.896;13.342;2023-08-12T04:04:47;93334.16;;;19.05;52.51
39613;BME280;25303;48.896;13.342;2023-08-12T04:07:32;93330.78;;;19.04;52.58
39613;BME280;25303;48.896;13.342;2023-08-12T04:10:15;93331.78;;;19.03;52.62
39613;BME280;25303;48.896;13.342;2023-08-12T04:12:59;93329.56;;;19.07;52.79
39613;BME280;25303;48.896;13.342;2023-08-12T04:15:42;93330.38;;;19.07;52.95
39613;BME280;25303;48.896;13.342;2023-08-12T04:18:25;93325.56;;;19.11;52.48
39613;BME280;25303;48.896;13.342;2023-08-12T04:21:08;93323.78;;;19.18;52.35
39613;BME280;25303;48.896;13.342;2023-08-12T04:23:53;93319.78;;;19.29;51.90
39613;BME280;25303;48.896;13.342;2023-08-12T04:26:37;93323.22;;;19.36;51.86
39613;BME280;25303;48.896;13.342;2023-08-12T04:29:19;93318.00;;;19.43;51.88
39613;BME280;25303;48.896;13.342;2023-08-12T04:32:03;93320.41;;;19.51;51.62
39613;BME280;25303;48.896;13.342;2023-08-12T04:34:46;93315.59;;;19.55;50.84
39613;BME280;25303;48.896;13.342;2023-08-12T04:37:29;93319.22;;;19.61;51.07
39613;BME280;25303;48.896;13.342;2023-08-12T04:40:15;93317.59;;;19.59;51.21
39613;BME280;25303;48.896;13.342;2023-08-12T04:42:59;93319.22;;;19.67;50.93
39613;BME280;25303;48.896;13.342;2023-08-12T04:45:44;93316.19;;;19.70;51.08
39613;BME280;25303;48.896;13.342;2023-08-12T04:48:31;93319.19;;;19.74;50.92
39613;BME280;25303;48.896;13.342;2023-08-12T04:51:15;93318.41;;;19.73;50.91
39613;BME280;25303;48.896;13.342;2023-08-12T04:53:58;93313.59;;;19.70;51.19
39613;BME280;25303;48.896;13.342;2023-08-12T04:56:44;93313.59;;;19.70;50.39
39613;BME280;25303;48.896;13.342;2023-08-12T04:59:26;93322.22;;;19.78;50.92
39613;BME280;25303;48.896;13.342;2023-08-12T05:02:09;93317.00;;;19.84;50.53
39613;BME280;25303;48.896;13.342;2023-08-12T05:04:53;93319.66;;;19.91;50.79
39613;BME280;25303;48.896;13.342;2023-08-12T05:07:36;93314.00;;;19.94;50.49
39613;BME280;25303;48.896;13.342;2023-08-12T05:10:22;93318.41;;;20.00;50.27
39613;BME280;25303;48.896;13.342;2023-08-12T05:13:07;93313.78;;;20.02;50.41
39613;BME280;25303;48.896;13.342;2023-08-12T05:15:49;93313.00;;;20.09;50.42
39613;BME280;25303;48.896;13.342;2023-08-12T05:18:32;93310.16;;;20.10;50.42
39613;BME280;25303;48.896;13.342;2023-08-12T05:21:15;93314.38;;;20.18;50.59
39613;BME280;25303;48.896;13.342;2023-08-12T05:23:58;93311.97;;;20.23;50.04
39613;BME280;25303;48.896;13.342;2023-08-12T05:26:42;93311.56;;;20.26;50.36
39613;BME280;25303;48.896;13.342;2023-08-12T05:29:26;93311.13;;;20.29;50.10
39613;BME280;25303;48.896;13.342;2023-08-12T05:32:09;93305.72;;;20.31;50.10
39613;BME280;25303;48.896;13.342;2023-08-12T05:34:53;93305.69;;;20.38;49.79
39613;BME280;25303;48.896;13.342;2023-08-12T05:37:36;93311.69;;;20.45;49.87
39613;BME280;25303;48.896;13.342;2023-08-12T05:40:19;93308.66;;;20.48;50.33
39613;BME280;25303;48.896;13.342;2023-08-12T05:43:01;93313.69;;;20.49;50.29
39613;BME280;25303;48.896;13.342;2023-08-12T05:45:46;93319.72;;;20.50;50.61
39613;BME280;25303;48.896;13.342;2023-08-12T05:48:30;93321.53;;;20.49;50.42
39613;BME280;25303;48.896;13.342;2023-08-12T05:51:13;93317.94;;;20.51;50.61
39613;BME280;25303;48.896;13.342;2023-08-12T05:53:56;93331.78;;;20.51;50.72
39613;BME280;25303;48.896;13.342;2023-08-12T05:56:39;93321.94;;;20.53;51.35
39613;BME280;25303;48.896;13.342;2023-08-12T05:59:21;93321.72;;;20.55;51.55
39613;BME280;25303;48.896;13.342;2023-08-12T06:02:07;93326.34;;;20.59;51.55
39613;BME280;25303;48.896;13.342;2023-08-12T06:04:51;93315.03;;;20.65;51.17
39613;BME280;25303;48.896;13.342;2023-08-12T06:07:34;93318.22;;;20.74;51.42
39613;BME280;25303;48.896;13.342;2023-08-12T06:10:17;93321.06;;;20.79;50.47
39613;BME280;25303;48.896;13.342;2023-08-12T06:13:00;93319.81;;;20.89;50.84
39613;BME280;25303;48.896;13.342;2023-08-12T06:15:49;93312.13;;;20.94;50.99
39613;BME280;25303;48.896;13.342;2023-08-12T06:18:33;93317.13;;;21.02;51.15
39613;BME280;25303;48.896;13.342;2023-08-12T06:21:16;93321.16;;;21.05;50.78
39613;BME280;25303;48.896;13.342;2023-08-12T06:23:59;93323.16;;;21.03;51.62
39613;BME280;25303;48.896;13.342;2023-08-12T06:26:42;93322.56;;;21.01;51.57
39613;BME280;25303;48.896;13.342;2023-08-12T06:29:25;93321.19;;;20.98;51.46
39613;BME280;25303;48.896;13.342;2023-08-12T06:32:08;93318.34;;;21.00;51.40
39613;BME280;25303;48.896;13.342;2023-08-12T06:34:56;93319.94;;;21.01;51.86
39613;BME280;25303;48.896;13.342;2023-08-12T06:37:39;93320.78;;;21.01;51.52
39613;BME280;25303;48.896;13.342;2023-08-12T06:40:23;93318.16;;;21.01;51.79
39613;BME280;25303;48.896;13.342;2023-08-12T06:43:06;93317.34;;;21.01;52.06
39613;BME280;25303;48.896;13.342;2023-08-12T06:45:49;93319.94;;;21.01;51.27
39613;BME280;25303;48.896;13.342;2023-08-12T06:48:32;93318.53;;;21.05;51.31
39613;BME280;25303;48.896;13.342;2023-08-12T06:51:16;93320.94;;;21.06;51.69
39613;BME280;25303;48.896;13.342;2023-08-12T06:53:59;93321.28;;;21.17;51.56
39613;BME280;25303;48.896;13.342;2023-08-12T06:56:42;93318.28;;;21.13;51.81
39613;BME280;25303;48.896;13.342;2023-08-12T06:59:25;93323.69;;;21.18;51.49
39613;BME280;25303;48.896;13.342;2023-08-12T07:02:08;93316.44;;;21.20;51.67
39613;BME280;25303;48.896;13.342;2023-08-12T07:04:51;93310.38;;;21.20;51.65
39613;BME280;25303;48.896;13.342;2023-08-12T07:07:36;93303.50;;;21.25;51.24
39613;BME280;25303;48.896;13.342;2023-08-12T07:10:19;93305.28;;;21.32;51.26
39613;BME280;25303;48.896;13.342;2023-08-12T07:13:04;93317.13;;;21.41;51.01
39613;BME280;25303;48.896;13.342;2023-08-12T07:15:47;93312.63;;;21.48;50.85
39613;BME280;25303;48.896;13.342;2023-08-12T07:18:30;93309.53;;;21.58;50.37
39613;BME280;25303;48.896;13.342;2023-08-12T07:21:13;93305.28;;;21.64;50.62
39613;BME280;25303;48.896;13.342;2023-08-12T07:23:58;93307.00;;;21.77;50.13
39613;BME280;25303;48.896;13.342;2023-08-12T07:26:44;93305.94;;;21.84;49.91
39613;BME280;25303;48.896;13.342;2023-08-12T07:29:27;93298.53;;;22.00;49.71
39613;BME280;25303;48.896;13.342;2023-08-12T07:32:10;93301.19;;;22.19;49.55
39613;BME280;25303;48.896;13.342;2023-08-12T07:34:54;93301.03;;;22.32;49.35
39613;BME280;25303;48.896;13.342;2023-08-12T07:37:37;93301.56;;;22.41;48.97
39613;BME280;25303;48.896;13.342;2023-08-12T07:40:21;93299.03;;;22.53;48.43
39613;BME280;25303;48.896;13.342;2023-08-12T07:43:04;93299.41;;;22.56;48.77
39613;BME280;25303;48.896;13.342;2023-08-12T07:45:50;93290.78;;;22.68;48.09
39613;BME280;25303;48.896;13.342;2023-08-12T07:48:49;93286.63;;;22.79;48.02
39613;BME280;25303;48.896;13.342;2023-08-12T07:51:32;93283.03;;;22.91;47.72
39613;BME280;25303;48.896;13.342;2023-08-12T07:54:15;93286.94;;;23.01;47.53
39613;BME280;25303;48.896;13.342;2023-08-12T07:56:59;93280.22;;;23.05;47.01
39613;BME280;25303;48.896;13.342;2023-08-12T07:59:42;93283.19;;;23.09;47.13
39613;BME280;25303;48.896;13.342;2023-08-12T08:02:25;93277.88;;;23.15;47.32
39613;BME280;25303;48.896;13.342;2023-08-12T08:05:08;93274.94;;;23.24;47.44
39613;BME280;25303;48.896;13.342;2023-08-12T08:07:51;93273.25;;;23.29;46.56
39613;BME280;25303;48.896;13.342;2023-08-12T08:10:34;93271.00;;;23.33;46.49
39613;BME280;25303;48.896;13.342;2023-08-12T08:13:18;93280.00;;;23.37;45.76
39613;BME280;25303;48.896;13.342;2023-08-12T08:16:01;93281.94;;;23.42;45.83
39613;BME280;25303;48.896;13.342;2023-08-12T08:18:44;93279.44;;;23.47;45.32
39613;BME280;25303;48.896;13.342;2023-08-12T08:21:27;93272.97;;;23.49;45.24
39613;BME280;25303;48.896;13.342;2023-08-12T08:24:11;93277.97;;;23.51;45.28
39613;BME280;25303;48.896;13.342;2023-08-12T08:26:54;93271.25;;;23.55;45.07
39613;BME280;25303;48.896;13.342;2023-08-12T08:29:38;93267.13;;;23.59;44.76
39613;BME280;25303;48.896;13.342;2023-08-12T08:32:21;93273.31;;;23.65;44.28
39613;BME280;25303;48.896;13.342;2023-08-12T08:35:05;93272.53;;;23.76;44.23
39613;BME280;25303;48.896;13.342;2023-08-12T08:37:48;93267.41;;;23.81;43.78
39613;BME280;25303;48.896;13.342;2023-08-12T08:40:31;93274.94;;;23.90;43.54
39613;BME280;25303;48.896;13.342;2023-08-12T08:43:15;93269.59;;;23.96;43.47
39613;BME280;25303;48.896;13.342;2023-08-12T08:46:02;93278.16;;;24.04;43.29
39613;BME280;25303;48.896;13.342;2023-08-12T08:48:45;93279.88;;;24.10;42.06
39613;BME280;25303;48.896;13.342;2023-08-12T08:51:30;93273.69;;;24.16;42.85
39613;BME280;25303;48.896;13.342;2023-08-12T08:54:14;93278.84;;;24.23;43.15
39613;BME280;25303;48.896;13.342;2023-08-12T08:56:57;93284.53;;;24.32;43.31
39613;BME280;25303;48.896;13.342;2023-08-12T08:59:47;93285.00;;;24.40;43.32
39613;BME280;25303;48.896;13.342;2023-08-12T09:02:41;93279.59;;;24.47;42.97
39613;BME280;25303;48.896;13.342;2023-08-12T09:05:26;93283.00;;;24.60;43.09
39613;BME280;25303;48.896;13.342;2023-08-12T09:08:09;93274.50;;;24.69;43.17
39613;BME280;25303;48.896;13.342;2023-08-12T09:10:55;93281.84;;;24.79;42.89
39613;BME280;25303;48.896;13.342;2023-08-12T09:13:39;93281.69;;;24.86;43.29
39613;BME280;25303;48.896;13.342;2023-08-12T09:16:21;93278.25;;;24.97;42.84
39613;BME280;25303;48.896;13.342;2023-08-12T09:19:06;93277.53;;;25.02;42.63
39613;BME280;25303;48.896;13.342;2023-08-12T09:21:51;93282.25;;;25.17;42.34
39613;BME280;25303;48.896;13.342;2023-08-12T09:24:34;93284.38;;;25.32;42.58
39613;BME280;25303;48.896;13.342;2023-08-12T09:27:18;93283.06;;;25.46;42.10
39613;BME280;25303;48.896;13.342;2023-08-12T09:30:02;93284.69;;;25.65;41.91
39613;BME280;25303;48.896;13.342;2023-08-12T09:32:58;93282.81;;;25.82;41.18
39613;BME280;25303;48.896;13.342;2023-08-12T09:35:43;93281.63;;;26.07;42.09
39613;BME280;25303;48.896;13.342;2023-08-12T09:38:26;93284.31;;;26.29;41.17
39613;BME280;25303;48.896;13.342;2023-08-12T09:41:09;93290.34;;;26.47;41.04
39613;BME280;25303;48.896;13.342;2023-08-12T09:43:52;93281.66;;;26.68;41.10
39613;BME280;25303;48.896;13.342;2023-08-12T09:46:35;93288.28;;;26.93;40.74
39613;BME280;25303;48.896;13.342;2023-08-12T09:49:20;93285.63;;;27.15;39.32
39613;BME280;25303;48.896;13.342;2023-08-12T09:52:05;93281.88;;;27.39;38.44
39613;BME280;25303;48.896;13.342;2023-08-12T09:54:49;93280.63;;;27.74;38.04
39613;BME280;25303;48.896;13.342;2023-08-12T09:57:37;93283.03;;;28.13;37.71
39613;BME280;25303;48.896;13.342;2023-08-12T10:00:24;93281.16;;;28.52;37.49
39613;BME280;25303;48.896;13.342;2023-08-12T10:03:08;93283.47;;;28.96;36.64
39613;BME280;25303;48.896;13.342;2023-08-12T10:05:51;93278.53;;;29.36;36.59
39613;BME280;25303;48.896;13.342;2023-08-12T10:08:37;93286.00;;;29.75;35.35
39613;BME280;25303;48.896;13.342;2023-08-12T10:11:20;93273.28;;;30.08;34.14
39613;BME280;25303;48.896;13.342;2023-08-12T10:14:03;93271.38;;;30.35;33.60
39613;BME280;25303;48.896;13.342;2023-08-12T10:16:46;93275.56;;;30.61;33.50
39613;BME280;25303;48.896;13.342;2023-08-12T10:19:30;93272.75;;;30.92;31.89
39613;BME280;25303;48.896;13.342;2023-08-12T10:22:13;93267.09;;;31.15;31.81
39613;BME280;25303;48.896;13.342;2023-08-12T10:24:59;93265.91;;;31.36;31.19
39613;BME280;25303;48.896;13.342;2023-08-12T10:27:44;93266.63;;;31.47;31.30
39613;BME280;25303;48.896;13.342;2023-08-12T10:30:28;93265.16;;;31.65;31.64
39613;BME280;25303;48.896;13.342;2023-08-12T10:33:11;93260.75;;;31.90;29.25
39613;BME280;25303;48.896;13.342;2023-08-12T10:35:58;93257.81;;;32.16;31.09
39613;BME280;25303;48.896;13.342;2023-08-12T10:38:43;93261.59;;;32.39;30.67
39613;BME280;25303;48.896;13.342;2023-08-12T10:41:28;93260.81;;;32.63;30.47
39613;BME280;25303;48.896;13.342;2023-08-12T10:44:11;93267.25;;;32.86;30.34
39613;BME280;25303;48.896;13.342;2023-08-12T10:46:56;93267.75;;;33.08;28.91
39613;BME280;25303;48.896;13.342;2023-08-12T10:49:43;93263.03;;;33.24;29.81
39613;BME280;25303;48.896;13.342;2023-08-12T10:52:27;93263.94;;;33.33;29.73
39613;BME280;25303;48.896;13.342;2023-08-12T10:55:16;93256.56;;;33.49;29.18
39613;BME280;25303;48.896;13.342;2023-08-12T10:58:00;93260.06;;;33.63;29.05
39613;BME280;25303;48.896;13.342;2023-08-12T11:00:43;93260.41;;;33.76;29.30
39613;BME280;25303;48.896;13.342;2023-08-12T11:03:32;93257.94;;;33.99;28.19
39613;BME280;25303;48.896;13.342;2023-08-12T11:06:19;93261.19;;;34.09;27.38
39613;BME280;25303;48.896;13.342;2023-08-12T11:09:06;93256.47;;;34.20;25.42
39613;BME280;25303;48.896;13.342;2023-08-12T11:11:56;93256.06;;;34.27;26.52
39613;BME280;25303;48.896;13.342;2023-08-12T11:14:53;93255.31;;;34.41;25.92
39613;BME280;25303;48.896;13.342;2023-08-12T11:17:37;93249.09;;;34.45;25.46
39613;BME280;25303;48.896;13.342;2023-08-12T11:20:21;93247.81;;;34.57;25.57
39613;BME280;25303;48.896;13.342;2023-08-12T11:23:05;93249.09;;;34.73;26.04
39613;BME280;25303;48.896;13.342;2023-08-12T11:25:48;93259.78;;;34.87;25.89
39613;BME280;25303;48.896;13.342;2023-08-12T11:28:31;93238.00;;;34.94;26.14
39613;BME280;25303;48.896;13.342;2023-08-12T11:31:16;93239.84;;;35.07;25.68
39613;BME280;25303;48.896;13.342;2023-08-12T11:34:00;93246.06;;;35.17;25.61
39613;BME280;25303;48.896;13.342;2023-08-12T11:36:43;93236.94;;;35.18;25.39
39613;BME280;25303;48.896;13.342;2023-08-12T11:39:25;93233.75;;;35.29;25.41
39613;BME280;25303;48.896;13.342;2023-08-12T11:42:09;93237.47;;;35.42;25.07
39613;BME280;25303;48.896;13.342;2023-08-12T11:44:52;93230.94;;;35.49;25.20
39613;BME280;25303;48.896;13.342;2023-08-12T11:47:39;93226.69;;;35.34;25.45
39613;BME280;25303;48.896;13.342;2023-08-12T11:50:23;93229.19;;;35.30;25.10
39613;BME280;25303;48.896;13.342;2023-08-12T11:53:06;93225.03;;;35.24;24.69
39613;BME280;25303;48.896;13.342;2023-08-12T11:55:49;93223.19;;;35.10;25.04
39613;BME280;25303;48.896;13.342;2023-08-12T11:58:36;93223.50;;;35.09;24.13
39613;BME280;25303;48.896;13.342;2023-08-12T12:01:33;93224.41;;;35.04;24.41
39613;BME280;25303;48.896;13.342;2023-08-12T12:04:17;93224.38;;;35.18;23.89
39613;BME280;25303;48.896;13.342;2023-08-12T12:07:01;93229.91;;;35.22;23.85
39613;BME280;25303;48.896;13.342;2023-08-12T12:09:50;93225.38;;;35.08;24.17
39613;BME280;25303;48.896;13.342;2023-08-12T12:12:34;93219.88;;;35.27;24.05
39613;BME280;25303;48.896;13.342;2023-08-12T12:15:17;93229.53;;;35.51;24.30
39613;BME280;25303;48.896;13.342;2023-08-12T12:18:00;93221.56;;;35.60;23.97
39613;BME280;25303;48.896;13.342;2023-08-12T12:20:58;93222.78;;;35.54;22.99
39613;BME280;25303;48.896;13.342;2023-08-12T12:23:41;93223.28;;;35.42;23.91
39613;BME280;25303;48.896;13.342;2023-08-12T12:26:24;93214.16;;;35.43;23.71
39613;BME280;25303;48.896;13.342;2023-08-12T12:29:07;93222.06;;;35.62;23.76
39613;BME280;25303;48.896;13.342;2023-08-12T12:31:53;93218.03;;;35.73;23.36
39613;BME280;25303;48.896;13.342;2023-08-12T12:34:36;93216.31;;;35.78;23.60
39613;BME280;25303;48.896;13.342;2023-08-12T12:37:20;93213.97;;;35.85;23.04
39613;BME280;25303;48.896;13.342;2023-08-12T12:40:04;93209.06;;;35.78;23.18
39613;BME280;25303;48.896;13.342;2023-08-12T12:42:47;93216.06;;;35.88;23.23
39613;BME280;25303;48.896;13.342;2023-08-12T12:45:30;93212.16;;;35.94;23.66
39613;BME280;25303;48.896;13.342;2023-08-12T12:48:13;93208.13;;;35.74;23.48
39613;BME280;25303;48.896;13.342;2023-08-12T12:50:56;93209.81;;;35.33;23.25
39613;BME280;25303;48.896;13.342;2023-08-12T12:53:40;93205.19;;;35.02;23.61
39613;BME280;25303;48.896;13.342;2023-08-12T12:56:23;93208.19;;;34.73;23.92
39613;BME280;25303;48.896;13.342;2023-08-12T12:59:06;93211.06;;;34.34;24.21
39613;BME280;25303;48.896;13.342;2023-08-12T13:01:49;93201.09;;;33.93;24.47
39613;BME280;25303;48.896;13.342;2023-08-12T13:04:32;93202.00;;;33.55;24.69
39613;BME280;25303;48.896;13.342;2023-08-12T13:07:15;93200.34;;;33.21;25.15
39613;BME280;25303;48.896;13.342;2023-08-12T13:09:59;93198.34;;;32.94;25.43
39613;BME280;25303;48.896;13.342;2023-08-12T13:12:42;93195.63;;;32.75;25.86
39613;BME280;25303;48.896;13.342;2023-08-12T13:15:25;93188.88;;;32.63;26.57
39613;BME280;25303;48.896;13.342;2023-08-12T13:18:08;93189.13;;;32.62;26.19
39613;BME280;25303;48.896;13.342;2023-08-12T13:20:51;93187.06;;;32.58;26.36
39613;BME280;25303;48.896;13.342;2023-08-12T13:23:34;93182.56;;;32.54;26.23
39613;BME280;25303;48.896;13.342;2023-08-12T13:26:20;93182.19;;;32.41;26.54
39613;BME280;25303;48.896;13.342;2023-08-12T13:29:03;93179.94;;;32.30;26.57
39613;BME280;25303;48.896;13.342;2023-08-12T13:31:46;93176.44;;;32.34;26.72
39613;BME280;25303;48.896;13.342;2023-08-12T13:34:29;93165.59;;;32.50;27.00
39613;BME280;25303;48.896;13.342;2023-08-12T13:37:12;93169.09;;;32.88;27.19
39613;BME280;25303;48.896;13.342;2023-08-12T13:39:55;93175.50;;;33.26;26.91
39613;BME280;25303;48.896;13.342;2023-08-12T13:42:39;93163.16;;;33.49;26.70
39613;BME280;25303;48.896;13.342;2023-08-12T13:45:22;93167.44;;;33.78;26.69
39613;BME280;25303;48.896;13.342;2023-08-12T13:48:05;93162.75;;;34.03;25.93
39613;BME280;25303;48.896;13.342;2023-08-12T13:50:48;93165.25;;;34.13;25.74
39613;BME280;25303;48.896;13.342;2023-08-12T13:53:33;93157.41;;;34.17;25.54
39613;BME280;25303;48.896;13.342;2023-08-12T13:56:16;93162.84;;;34.26;25.33
39613;BME280;25303;48.896;13.342;2023-08-12T13:59:00;93168.28;;;34.34;25.69
39613;BME280;25303;48.896;13.342;2023-08-12T14:01:43;93161.69;;;34.46;25.25
39613;BME280;25303;48.896;13.342;2023-08-12T14:04:26;93164.72;;;34.39;25.16
39613;BME280;25303;48.896;13.342;2023-08-12T14:07:09;93163.72;;;34.35;24.71
39613;BME280;25303;48.896;13.342;2023-08-12T14:09:52;93161.97;;;34.44;25.04
39613;BME280;25303;48.896;13.342;2023-08-12T14:12:35;93161.16;;;34.58;24.80
39613;BME280;25303;48.896;13.342;2023-08-12T14:15:20;93166.28;;;34.68;24.74
39613;BME280;25303;48.896;13.342;2023-08-12T14:18:03;93161.44;;;34.70;24.33